createdAt,value
2022-10-15T08:31:26.336Z,2.80
2022-10-15T08:32:28.364Z,1.95
2022-10-15T08:33:33.562Z,2.17
2022-10-15T08:34:35.850Z,1.65
2022-10-15T08:35:46.417Z,2.00
2022-10-15T08:36:51.080Z,3.33
2022-10-15T08:37:54.199Z,3.20
2022-10-15T08:38:59.139Z,9.60
2022-10-15T08:40:01.169Z,2.08
2022-10-15T08:41:09.221Z,1.48
2022-10-15T08:42:22.067Z,2.95
2022-10-15T08:43:28.675Z,2.00
2022-10-15T08:44:37.667Z,6.03
2022-10-15T08:45:45.236Z,3.38
2022-10-15T08:46:55.745Z,3.95
2022-10-15T08:48:01.411Z,2.08
2022-10-15T08:49:07.805Z,1.55
2022-10-15T08:50:20.438Z,1.42
2022-10-15T08:51:27.931Z,1.08
2022-10-15T08:52:42.595Z,2.63
2022-10-15T08:53:51.423Z,2.33
2022-10-15T08:54:55.511Z,2.05
2022-10-15T08:56:06.216Z,2.00
2022-10-15T08:57:18.468Z,2.35
2022-10-15T08:58:30.435Z,1.50
2022-10-15T08:59:42.713Z,1.65
2022-10-15T09:00:53.089Z,1.42
2022-10-15T09:02:03.739Z,3.35
2022-10-15T09:03:21.379Z,1.08
2022-10-15T09:04:33.829Z,1.80
2022-10-15T09:05:43.508Z,2.15
2022-10-15T09:06:49.980Z,2.83
2022-10-15T09:07:57.731Z,1.92
2022-10-15T09:09:09.280Z,3.33
2022-10-15T09:11:26.563Z,2.63
2022-10-15T09:12:41.665Z,1.25
2022-10-15T09:13:48.030Z,1.30
2022-10-15T09:14:51.003Z,1.92
2022-10-15T09:16:00.399Z,1.75
2022-10-15T09:17:17.194Z,2.85
2022-10-15T09:18:23.725Z,2.95
2022-10-15T09:19:31.927Z,1.77
2022-10-15T09:20:36.787Z,1.50
2022-10-15T09:21:41.803Z,1.67
2022-10-15T09:22:44.739Z,1.55
2022-10-15T09:23:49.780Z,2.35
2022-10-15T09:24:51.971Z,1.80
2022-10-15T09:26:05.025Z,1.48
2022-10-15T09:27:13.007Z,1.85
2022-10-15T09:28:21.431Z,1.27
2022-10-15T09:29:33.526Z,1.30
2022-10-15T09:30:42.766Z,1.17
2022-10-15T09:32:03.042Z,2.58
2022-10-15T09:33:19.361Z,1.10
2022-10-15T09:34:26.706Z,1.02
2022-10-15T09:35:36.499Z,1.50
2022-10-15T09:36:44.996Z,1.25
2022-10-15T09:38:02.149Z,4.15
2022-10-15T09:39:27.907Z,1.73
2022-10-15T09:40:49.829Z,1.55
2022-10-15T09:42:01.923Z,2.03
2022-10-15T09:43:08.973Z,2.33
2022-10-15T09:44:13.993Z,1.63
2022-10-15T09:45:21.461Z,1.80
2022-10-15T09:46:26.359Z,3.17
2022-10-15T09:47:32.913Z,3.13
2022-10-15T09:48:46.456Z,4.07
2022-10-15T09:49:51.748Z,3.35
2022-10-15T09:51:03.133Z,2.58
2022-10-15T09:52:13.080Z,2.40
2022-10-15T09:53:27.543Z,2.05
2022-10-15T09:54:46.101Z,1.88
2022-10-15T09:55:55.045Z,2.20
2022-10-15T09:56:58.963Z,5.03
2022-10-15T09:58:09.720Z,1.88
2022-10-15T09:59:19.524Z,2.75
2022-10-15T10:00:24.355Z,1.45
2022-10-15T10:01:30.580Z,2.88
2022-10-15T10:02:32.676Z,3.47
2022-10-15T10:03:40.818Z,2.38
2022-10-15T10:04:42.891Z,2.17
2022-10-15T10:05:48.597Z,3.15
2022-10-15T10:06:54.007Z,2.85
2022-10-15T10:08:12.407Z,2.20
2022-10-15T10:09:17.992Z,2.30
2022-10-15T10:10:28.318Z,1.13
2022-10-15T10:11:50.953Z,2.08
2022-10-15T10:12:57.432Z,3.63
2022-10-15T10:14:00.989Z,3.95
2022-10-15T10:15:09.901Z,1.50
2022-10-15T10:16:14.037Z,2.20
2022-10-15T10:17:22.763Z,2.53
2022-10-15T10:18:25.943Z,2.45
2022-10-15T10:19:33.435Z,2.88
2022-10-15T10:20:38.276Z,1.38
2022-10-15T10:21:46.337Z,1.48
2022-10-15T10:22:52.766Z,1.80
2022-10-15T10:23:54.931Z,4.10
2022-10-15T10:24:59.627Z,1.63
2022-10-15T10:26:03.718Z,8.60
2022-10-15T10:27:24.794Z,2.75
2022-10-15T10:28:34.851Z,3.10
2022-10-15T10:29:40.820Z,3.92
2022-10-15T10:30:54.534Z,3.65
2022-10-15T10:31:57.487Z,2.22
2022-10-15T10:33:04.010Z,2.15
2022-10-15T10:34:06.234Z,2.38
2022-10-15T10:35:24.050Z,1.65
2022-10-15T10:36:31.795Z,1.77
2022-10-15T10:37:42.675Z,2.55
2022-10-15T10:38:58.692Z,1.65
2022-10-15T10:40:03.913Z,1.80
2022-10-15T10:41:11.017Z,1.92
2022-10-15T10:42:26.462Z,1.45
2022-10-15T10:43:36.764Z,1.90
2022-10-15T10:44:47.059Z,3.33
2022-10-15T10:45:57.752Z,2.05
2022-10-15T10:47:12.332Z,1.55
2022-10-15T10:48:20.635Z,1.10
2022-10-15T10:49:33.822Z,2.45
2022-10-15T10:50:41.089Z,2.75
2022-10-15T10:51:52.575Z,69.05
2022-10-15T10:52:54.762Z,339.95
2022-10-15T10:54:01.877Z,344.33
2022-10-15T10:55:07.135Z,584.55
2022-10-15T10:56:15.686Z,650.78
2022-10-15T10:57:26.875Z,820.20
2022-10-15T10:58:36.117Z,805.67
2022-10-15T10:59:45.144Z,797.00
2022-10-15T11:00:52.508Z,745.03
2022-10-15T11:01:58.474Z,706.95
2022-10-15T11:03:03.925Z,925.90
2022-10-15T11:04:18.672Z,45.20
2022-10-15T11:05:28.130Z,220.73
2022-10-15T11:07:00.382Z,190.98
2022-10-15T11:08:11.930Z,277.92
2022-10-15T11:09:33.574Z,12.18
2022-10-15T11:10:42.379Z,2.40
2022-10-15T11:11:55.503Z,2.08
2022-10-15T11:13:06.983Z,1.48
2022-10-15T11:14:22.330Z,95.05
2022-10-15T11:15:35.705Z,227.25
2022-10-15T11:16:48.919Z,280.88
2022-10-15T11:17:55.781Z,253.02
2022-10-15T11:19:19.703Z,195.30
2022-10-15T11:20:59.615Z,858.05
2022-10-15T11:22:38.597Z,941.72
2022-10-15T11:24:09.052Z,965.05
2022-10-15T11:25:22.749Z,986.10
2022-10-15T11:26:46.166Z,995.30
2022-10-15T11:28:08.646Z,972.88
2022-10-15T11:29:22.561Z,893.80
2022-10-15T11:30:41.307Z,952.65
2022-10-15T11:32:02.463Z,955.13
2022-10-15T11:33:31.924Z,653.30
2022-10-15T11:34:53.193Z,946.53
2022-10-15T11:36:06.167Z,704.90
2022-10-15T11:37:24.723Z,609.83
2022-10-15T11:38:39.495Z,664.80
2022-10-15T11:39:59.536Z,646.40
2022-10-15T11:41:18.432Z,956.03
2022-10-15T11:42:28.328Z,972.38
2022-10-15T11:43:44.213Z,940.13
2022-10-15T11:45:12.998Z,952.38
2022-10-15T11:46:25.417Z,957.78
2022-10-15T11:47:41.542Z,952.60
2022-10-15T11:49:00.566Z,975.42
2022-10-15T11:50:14.597Z,750.55
2022-10-15T11:51:28.857Z,957.42
2022-10-15T11:52:49.250Z,985.03
2022-10-15T11:54:24.760Z,980.65
2022-10-15T11:55:35.651Z,966.75
2022-10-15T11:56:44.000Z,967.13
2022-10-15T11:57:50.052Z,979.15
2022-10-15T12:00:35.075Z,952.20
2022-10-15T12:01:41.936Z,808.78
2022-10-15T12:02:47.150Z,868.17
2022-10-15T12:03:56.702Z,983.28
2022-10-15T12:05:01.467Z,952.70
2022-10-15T12:06:10.267Z,979.72
2022-10-15T12:07:21.294Z,990.78
2022-10-15T12:08:29.494Z,977.08
2022-10-15T12:09:38.407Z,997.15
2022-10-15T12:10:59.449Z,998.25
2022-10-15T12:12:07.625Z,987.05
2022-10-15T12:13:20.861Z,995.30
2022-10-15T12:14:28.647Z,991.65
2022-10-15T12:15:42.586Z,998.85
2022-10-15T12:16:53.818Z,999.90
2022-10-15T12:18:06.658Z,999.90
2022-10-15T12:19:16.239Z,428.67
2022-10-15T12:20:24.188Z,999.90
2022-10-15T12:21:35.874Z,999.90
2022-10-15T12:22:43.049Z,894.95
2022-10-15T12:23:45.184Z,866.95
2022-10-15T12:24:57.651Z,405.73
2022-10-15T12:25:59.808Z,592.95
2022-10-15T12:27:18.747Z,144.43
2022-10-15T12:28:26.853Z,182.18
2022-10-15T12:29:29.243Z,169.80
2022-10-15T12:30:37.108Z,296.02
2022-10-15T12:31:50.315Z,999.90
2022-10-15T12:32:55.654Z,610.03
2022-10-15T12:33:58.298Z,223.23
2022-10-15T12:35:05.329Z,457.98
2022-10-15T12:36:28.331Z,105.97
2022-10-15T12:37:37.267Z,413.20
2022-10-15T12:38:44.025Z,452.80
2022-10-15T12:39:52.591Z,318.10
2022-10-15T12:41:07.111Z,824.95
2022-10-15T12:42:25.058Z,909.22
2022-10-15T12:43:28.194Z,863.78
2022-10-15T12:44:35.730Z,975.35
2022-10-15T12:45:40.729Z,997.55
2022-10-15T12:46:45.773Z,993.50
2022-10-15T12:47:50.477Z,996.60
2022-10-15T12:48:58.244Z,248.48
2022-10-15T12:50:03.893Z,250.73
2022-10-15T12:51:32.918Z,232.18
2022-10-15T12:53:00.601Z,141.75
2022-10-15T12:54:02.768Z,124.45
2022-10-15T12:55:24.162Z,164.45
2022-10-15T12:56:36.905Z,95.90
2022-10-15T12:57:56.365Z,191.07
2022-10-15T12:59:01.051Z,228.25
2022-10-15T13:00:24.616Z,224.25
2022-10-15T13:01:52.516Z,293.40
2022-10-15T13:02:56.150Z,266.65
2022-10-15T13:04:03.997Z,213.10
2022-10-15T13:05:10.440Z,200.55
2022-10-15T13:06:34.933Z,223.95
2022-10-15T13:07:41.703Z,223.35
2022-10-15T13:08:48.782Z,186.85
2022-10-15T13:09:55.127Z,171.90
2022-10-15T13:10:59.582Z,190.90
2022-10-15T13:12:07.399Z,162.80
2022-10-15T13:13:17.553Z,126.55
2022-10-15T13:14:31.189Z,139.38
2022-10-15T13:15:34.950Z,134.90
2022-10-15T13:16:40.297Z,144.75
2022-10-15T13:17:47.818Z,120.75
2022-10-15T13:18:59.640Z,64.80
2022-10-15T13:21:11.400Z,67.13
2022-10-15T13:22:26.422Z,147.52
2022-10-15T13:23:31.002Z,194.57
2022-10-15T13:24:43.800Z,223.57
2022-10-15T13:25:45.944Z,218.35
2022-10-15T13:26:51.476Z,204.80
2022-10-15T13:27:56.157Z,168.40
2022-10-15T13:29:02.484Z,211.30
2022-10-15T13:30:10.428Z,38.85
2022-10-15T13:31:35.382Z,14.98
2022-10-15T13:32:46.224Z,26.30
2022-10-15T13:33:52.464Z,12.35
2022-10-15T13:34:59.970Z,4.72
2022-10-15T13:36:07.511Z,4.97
2022-10-15T13:37:22.253Z,5.40
2022-10-15T13:38:28.299Z,3.67
2022-10-15T13:39:36.452Z,3.80
2022-10-15T13:40:39.899Z,6.13
2022-10-15T13:41:45.731Z,9.30
2022-10-15T13:43:06.565Z,9.13
2022-10-15T13:44:24.389Z,6.05
2022-10-15T13:45:27.343Z,2.72
2022-10-15T13:46:36.176Z,2.75
2022-10-15T13:47:42.743Z,3.90
2022-10-15T13:48:48.459Z,11.32
2022-10-15T13:49:51.322Z,2.45
2022-10-15T13:50:58.995Z,2.40
2022-10-15T13:52:02.696Z,2.15
2022-10-15T13:53:17.103Z,1.73
2022-10-15T13:54:25.652Z,1.88
2022-10-15T13:55:33.917Z,133.73
2022-10-15T13:56:36.707Z,48.47
2022-10-15T13:57:47.326Z,12.82
2022-10-15T13:58:57.709Z,11.60
2022-10-15T14:00:04.971Z,9.32
2022-10-15T14:01:13.421Z,3.33
2022-10-15T14:02:19.573Z,6.50
2022-10-15T14:03:24.538Z,3.42
2022-10-15T14:08:25.276Z,2.35
2022-10-15T14:09:35.145Z,2.75
2022-10-15T14:10:38.480Z,8.73
2022-10-15T14:11:45.084Z,4.50
2022-10-15T14:12:52.277Z,4.80
2022-10-15T14:14:02.458Z,4.25
2022-10-15T14:15:34.905Z,4.90
2022-10-15T14:16:49.067Z,4.85
2022-10-15T14:17:52.500Z,4.43
2022-10-15T14:19:01.681Z,9.95
2022-10-15T14:20:27.334Z,4.90
2022-10-15T14:21:33.094Z,16.30
2022-10-15T14:22:36.397Z,6.45
2022-10-15T14:23:43.484Z,3.92
2022-10-15T14:24:53.085Z,7.65
2022-10-15T14:25:58.595Z,5.45
2022-10-15T14:27:11.236Z,8.07
2022-10-15T14:28:21.048Z,3.67
2022-10-15T14:29:30.574Z,4.13
2022-10-15T14:30:36.744Z,4.20
2022-10-15T14:31:48.404Z,3.00
2022-10-15T14:32:53.116Z,2.33
2022-10-15T14:34:02.787Z,1.83
2022-10-15T14:35:10.083Z,1.90
2022-10-15T14:36:28.867Z,2.08
2022-10-15T14:37:41.408Z,2.30
2022-10-15T14:38:47.469Z,3.85
2022-10-15T14:39:50.517Z,1.90
2022-10-15T14:41:07.165Z,3.17
2022-10-15T14:42:31.439Z,2.53
2022-10-15T14:43:35.665Z,2.75
2022-10-15T14:44:50.820Z,3.58
2022-10-15T14:45:58.617Z,3.38
2022-10-15T14:47:06.566Z,3.22
2022-10-15T14:48:11.450Z,3.75
2022-10-15T14:49:30.365Z,2.75
2022-10-15T14:50:35.818Z,2.58
2022-10-15T14:51:42.014Z,2.88
2022-10-15T14:52:50.537Z,2.92
2022-10-15T14:53:55.477Z,4.22
2022-10-15T14:55:13.133Z,2.65
2022-10-15T14:56:20.730Z,74.35
2022-10-15T14:57:34.717Z,238.07
2022-10-15T14:58:52.367Z,373.45
2022-10-15T15:00:04.402Z,445.27
2022-10-15T15:01:08.785Z,347.95
2022-10-15T15:02:20.145Z,89.40
2022-10-15T15:03:30.635Z,175.93
2022-10-15T15:04:52.659Z,16.23
2022-10-15T15:07:23.586Z,183.68
2022-10-15T15:08:30.297Z,137.73
2022-10-15T15:09:36.532Z,4.72
2022-10-15T15:10:43.248Z,4.80
2022-10-15T15:11:51.082Z,20.02
2022-10-15T15:13:04.790Z,11.90
2022-10-15T15:14:25.795Z,11.20
2022-10-15T15:15:30.535Z,7.13
2022-10-15T15:16:35.209Z,19.00
2022-10-15T15:17:37.349Z,4.55
2022-10-15T15:18:49.072Z,3.40
2022-10-15T15:19:54.923Z,3.58
2022-10-15T15:21:04.703Z,2.72
2022-10-15T15:22:09.917Z,2.42
2022-10-15T15:23:30.060Z,2.55
2022-10-15T15:24:33.507Z,2.88
2022-10-15T15:25:45.835Z,3.63
2022-10-15T15:26:48.774Z,3.63
2022-10-15T15:27:56.409Z,3.22
2022-10-15T15:29:02.563Z,2.67
2022-10-15T15:30:19.740Z,4.15
2022-10-15T15:31:29.414Z,4.57
2022-10-15T15:32:35.305Z,3.78
2022-10-15T15:33:41.627Z,4.38
2022-10-15T15:34:48.563Z,3.67
2022-10-15T15:35:59.686Z,5.90
2022-10-15T15:37:03.374Z,6.40
2022-10-15T15:38:11.496Z,4.70
2022-10-15T15:39:14.578Z,7.43
2022-10-15T15:40:20.835Z,9.55
2022-10-15T15:41:27.632Z,9.98
2022-10-15T15:42:33.600Z,13.65
2022-10-15T15:43:39.413Z,17.95
2022-10-15T15:44:52.133Z,13.13
2022-10-15T15:45:57.088Z,6.60
2022-10-15T15:47:03.429Z,11.23
2022-10-15T15:48:09.312Z,4.32
2022-10-15T15:49:12.840Z,4.18
2022-10-15T15:50:21.529Z,8.52
2022-10-15T15:51:28.326Z,40.42
2022-10-15T15:52:38.787Z,35.90
2022-10-15T15:53:46.640Z,158.10
2022-10-15T15:54:55.284Z,172.52
2022-10-15T15:56:04.283Z,4.20
2022-10-15T15:57:11.547Z,33.42
2022-10-15T15:58:18.057Z,22.67
2022-10-15T15:59:25.514Z,3.60
2022-10-15T16:00:31.359Z,14.30
2022-10-15T16:01:37.123Z,18.52
2022-10-15T16:02:46.924Z,66.97
2022-10-15T16:03:52.622Z,58.17
2022-10-15T16:05:04.801Z,42.42
2022-10-15T16:06:09.307Z,8.65
2022-10-15T16:07:18.994Z,11.38
2022-10-15T16:08:26.103Z,3.22
2022-10-15T16:09:37.218Z,2.50
2022-10-15T16:10:41.010Z,1.45
2022-10-15T16:11:51.970Z,3.03
2022-10-15T16:12:56.998Z,16.35
2022-10-15T16:14:09.495Z,4.00
2022-10-15T16:15:14.926Z,2.72
2022-10-15T16:16:24.894Z,4.78
2022-10-15T16:17:27.825Z,4.00
2022-10-15T16:18:37.821Z,6.82
2022-10-15T16:19:48.088Z,5.93
2022-10-15T16:20:51.952Z,5.45
2022-10-15T16:22:04.092Z,6.75
2022-10-15T16:23:06.566Z,5.55
2022-10-15T16:24:13.115Z,12.13
2022-10-15T16:25:16.655Z,11.55
2022-10-15T16:26:25.613Z,2.33
2022-10-15T16:27:35.757Z,2.67
2022-10-15T16:28:39.166Z,3.80
2022-10-15T16:29:51.288Z,3.80
2022-10-15T16:30:56.747Z,3.25
2022-10-15T16:32:03.121Z,2.70
2022-10-15T16:34:17.719Z,2.75
2022-10-15T16:35:23.167Z,3.03
2022-10-15T16:36:30.000Z,2.25
2022-10-15T16:37:36.524Z,2.55
2022-10-15T16:38:48.597Z,2.47
2022-10-15T16:39:51.994Z,1.98
2022-10-15T16:41:02.067Z,1.77
2022-10-15T16:42:06.123Z,2.00
2022-10-15T16:43:15.295Z,2.10
2022-10-15T16:44:18.360Z,2.20
2022-10-15T16:45:23.855Z,2.63
2022-10-15T16:46:30.654Z,4.20
2022-10-15T16:47:33.945Z,5.88
2022-10-15T16:48:39.698Z,9.85
2022-10-15T16:49:46.679Z,16.00
2022-10-15T16:51:02.503Z,44.53
2022-10-15T16:52:09.939Z,64.82
2022-10-15T16:53:17.901Z,86.43
2022-10-15T16:54:26.412Z,89.95
2022-10-15T16:55:32.398Z,107.10
2022-10-15T16:56:38.498Z,153.90
2022-10-15T16:57:42.390Z,192.05
2022-10-15T16:58:48.228Z,199.38
2022-10-15T16:59:51.921Z,217.52
2022-10-15T17:01:08.799Z,145.77
2022-10-15T17:02:12.604Z,184.80
2022-10-15T17:03:18.136Z,93.63
2022-10-15T17:04:23.722Z,140.32
2022-10-15T17:05:29.524Z,77.47
2022-10-15T17:06:37.177Z,133.75
2022-10-15T17:07:41.285Z,169.95
2022-10-15T17:08:52.070Z,158.70
2022-10-15T17:09:55.312Z,214.02
2022-10-15T17:11:12.581Z,235.68
2022-10-15T17:12:23.955Z,307.08
2022-10-15T17:14:34.095Z,41.50
2022-10-15T17:15:37.324Z,393.48
2022-10-15T17:16:45.011Z,348.10
2022-10-15T17:17:50.403Z,297.95
2022-10-15T17:18:57.883Z,315.40
2022-10-15T17:20:21.591Z,34.72
2022-10-15T17:21:46.963Z,21.75
2022-10-15T17:22:52.077Z,99.28
2022-10-15T17:24:03.548Z,277.17
2022-10-15T17:25:11.171Z,308.42
2022-10-15T17:26:19.663Z,327.30
2022-10-15T17:27:27.038Z,233.48
2022-10-15T17:28:32.824Z,372.38
2022-10-15T17:29:40.178Z,390.73
2022-10-15T17:30:43.697Z,22.33
2022-10-15T17:31:50.826Z,15.85
2022-10-15T17:32:54.562Z,17.42
2022-10-15T17:34:03.975Z,27.10
2022-10-15T17:35:10.007Z,33.72
2022-10-15T17:36:20.078Z,32.78
2022-10-15T17:37:26.985Z,38.53
2022-10-15T17:38:37.296Z,153.30
2022-10-15T17:39:44.962Z,368.02
2022-10-15T17:40:54.467Z,393.60
2022-10-15T17:42:03.731Z,424.13
2022-10-15T17:43:14.062Z,383.27
2022-10-15T17:44:25.892Z,489.27
2022-10-15T17:45:30.353Z,417.90
2022-10-15T17:46:42.977Z,185.65
2022-10-15T17:47:47.106Z,335.35
2022-10-15T17:49:09.053Z,465.52
2022-10-15T17:50:15.401Z,519.20
2022-10-15T17:51:22.364Z,532.50
2022-10-15T17:52:32.919Z,525.78
2022-10-15T17:53:35.345Z,549.80
2022-10-15T17:54:40.063Z,585.40
2022-10-15T17:55:42.884Z,599.20
2022-10-15T17:56:49.087Z,620.00
2022-10-15T17:57:51.480Z,595.72
2022-10-15T17:58:56.984Z,426.83
2022-10-15T17:59:59.191Z,497.85
2022-10-15T18:01:04.187Z,495.25
2022-10-15T18:02:10.112Z,560.80
2022-10-15T18:03:13.283Z,542.95
2022-10-15T18:04:18.042Z,544.85
2022-10-15T18:05:20.288Z,196.10
2022-10-15T18:06:27.062Z,2.30
2022-10-15T18:07:32.147Z,1.73
2022-10-15T18:08:37.466Z,1.80
2022-10-15T18:09:45.283Z,3.88
2022-10-15T18:10:56.186Z,5.35
2022-10-15T18:12:05.847Z,6.35
2022-10-15T18:13:09.452Z,7.65
2022-10-15T18:14:16.296Z,4.60
2022-10-15T18:15:26.925Z,6.85
2022-10-15T18:16:44.671Z,3.38
2022-10-15T18:17:46.880Z,2.95
2022-10-15T18:18:52.244Z,3.40
2022-10-15T18:19:57.178Z,3.80
2022-10-15T18:21:03.754Z,3.17
2022-10-15T18:22:09.945Z,5.75
2022-10-15T18:23:18.679Z,6.63
2022-10-15T18:24:22.261Z,6.55
2022-10-15T18:25:27.074Z,51.90
2022-10-15T18:26:29.456Z,86.20
2022-10-15T18:27:38.286Z,123.55
2022-10-15T18:28:42.844Z,143.95
2022-10-15T18:29:48.147Z,204.73
2022-10-15T18:30:50.411Z,167.68
2022-10-15T18:31:58.208Z,230.18
2022-10-15T18:33:00.572Z,210.32
2022-10-15T18:34:05.533Z,220.52
2022-10-15T18:35:08.457Z,226.57
2022-10-15T18:36:16.540Z,266.75
2022-10-15T18:37:21.495Z,322.85
2022-10-15T18:38:26.239Z,240.07
2022-10-15T18:39:31.033Z,202.88
2022-10-15T18:40:36.225Z,292.25
2022-10-15T18:43:09.487Z,250.48
2022-10-15T18:44:16.740Z,279.38
2022-10-15T18:45:21.663Z,268.40
2022-10-15T18:46:24.528Z,416.15
2022-10-15T18:47:29.559Z,363.95
2022-10-15T18:48:32.937Z,393.40
2022-10-15T18:49:38.878Z,441.70
2022-10-15T18:50:42.613Z,419.10
2022-10-15T18:51:51.831Z,473.73
2022-10-15T18:52:54.293Z,417.58
2022-10-15T18:54:01.986Z,469.42
2022-10-15T18:55:05.032Z,484.80
2022-10-15T18:56:13.014Z,400.35
2022-10-15T18:57:18.423Z,498.83
2022-10-15T18:58:20.619Z,454.17
2022-10-15T18:59:25.528Z,404.27
2022-10-15T19:00:28.597Z,382.50
2022-10-15T19:01:35.546Z,457.60
2022-10-15T19:02:37.919Z,338.58
2022-10-15T19:03:42.687Z,410.13
2022-10-15T19:04:44.827Z,455.83
2022-10-15T19:05:51.146Z,326.42
2022-10-15T19:06:54.734Z,304.50
2022-10-15T19:07:59.393Z,310.50
2022-10-15T19:09:07.366Z,442.05
2022-10-15T19:10:15.272Z,578.20
2022-10-15T19:11:20.379Z,623.13
2022-10-15T19:12:26.344Z,606.50
2022-10-15T19:13:28.718Z,614.30
2022-10-15T19:14:33.557Z,598.92
2022-10-15T19:15:36.365Z,611.30
2022-10-15T19:16:43.568Z,633.03
2022-10-15T19:17:47.154Z,468.63
2022-10-15T19:18:53.617Z,556.80
2022-10-15T19:19:59.084Z,658.97
2022-10-15T19:21:06.799Z,683.65
2022-10-15T19:22:12.694Z,669.83
2022-10-15T19:23:15.783Z,670.20
2022-10-15T19:24:25.659Z,599.17
2022-10-15T19:25:28.027Z,676.90
2022-10-15T19:26:33.418Z,645.97
2022-10-15T19:27:36.370Z,636.67
2022-10-15T19:28:42.626Z,678.65
2022-10-15T19:29:44.944Z,609.67
2022-10-15T19:30:58.078Z,610.80
2022-10-15T19:32:04.151Z,621.17
2022-10-15T19:33:08.717Z,628.58
2022-10-15T19:34:16.374Z,625.38
2022-10-15T19:35:20.970Z,542.60
2022-10-15T19:36:28.393Z,580.00
2022-10-15T19:37:43.963Z,464.65
2022-10-15T19:38:53.055Z,594.40
2022-10-15T19:43:50.060Z,585.63
2022-10-15T19:44:55.497Z,603.45
